sensor_id;sensor_type;location;lat;lon;timestamp;P1;durP1;ratioP1;P2;durP2;ratioP2
13238;SDS011;6686;51.292;4.166;2022-07-06T00:02:03;4.70;;;3.17;;
13238;SDS011;6686;51.292;4.166;2022-07-06T00:04:49;3.77;;;3.20;;
13238;SDS011;6686;51.292;4.166;2022-07-06T00:07:35;4.30;;;3.30;;
13238;SDS011;6686;51.292;4.166;2022-07-06T00:10:21;3.90;;;3.30;;
13238;SDS011;6686;51.292;4.166;2022-07-06T00:13:07;5.32;;;3.78;;
13238;SDS011;6686;51.292;4.166;2022-07-06T00:15:53;4.50;;;3.47;;
13238;SDS011;6686;51.292;4.166;2022-07-06T00:18:39;4.90;;;3.70;;
13238;SDS011;6686;51.292;4.166;2022-07-06T00:21:25;4.07;;;3.70;;
13238;SDS011;6686;51.292;4.166;2022-07-06T00:24:11;4.33;;;3.73;;
13238;SDS011;6686;51.292;4.166;2022-07-06T00:26:57;6.67;;;4.07;;
13238;SDS011;6686;51.292;4.166;2022-07-06T00:29:43;4.23;;;3.83;;
13238;SDS011;6686;51.292;4.166;2022-07-06T00:32:29;4.20;;;3.80;;
13238;SDS011;6686;51.292;4.166;2022-07-06T00:35:15;4.53;;;3.80;;
13238;SDS011;6686;51.292;4.166;2022-07-06T00:38:00;4.97;;;4.20;;
13238;SDS011;6686;51.292;4.166;2022-07-06T00:40:46;5.13;;;3.70;;
13238;SDS011;6686;51.292;4.166;2022-07-06T00:46:37;4.60;;;4.07;;
13238;SDS011;6686;51.292;4.166;2022-07-06T00:49:23;5.27;;;3.53;;
13238;SDS011;6686;51.292;4.166;2022-07-06T00:52:28;5.60;;;3.90;;
13238;SDS011;6686;51.292;4.166;2022-07-06T00:55:15;4.43;;;4.03;;
13238;SDS011;6686;51.292;4.166;2022-07-06T00:58:03;5.93;;;4.17;;
13238;SDS011;6686;51.292;4.166;2022-07-06T01:00:58;6.33;;;4.43;;
13238;SDS011;6686;51.292;4.166;2022-07-06T01:03:40;4.63;;;4.23;;
13238;SDS011;6686;51.292;4.166;2022-07-06T01:06:26;5.40;;;4.90;;
13238;SDS011;6686;51.292;4.166;2022-07-06T01:09:12;5.78;;;4.60;;
13238;SDS011;6686;51.292;4.166;2022-07-06T01:11:58;5.10;;;4.60;;
13238;SDS011;6686;51.292;4.166;2022-07-06T01:14:44;5.43;;;4.93;;
13238;SDS011;6686;51.292;4.166;2022-07-06T01:17:30;4.97;;;4.53;;
13238;SDS011;6686;51.292;4.166;2022-07-06T01:23:04;6.43;;;4.83;;
13238;SDS011;6686;51.292;4.166;2022-07-06T01:25:50;5.30;;;4.77;;
13238;SDS011;6686;51.292;4.166;2022-07-06T01:28:36;5.63;;;4.33;;
13238;SDS011;6686;51.292;4.166;2022-07-06T01:31:23;4.93;;;4.23;;
13238;SDS011;6686;51.292;4.166;2022-07-06T01:34:08;6.13;;;4.93;;
13238;SDS011;6686;51.292;4.166;2022-07-06T01:36:54;7.03;;;5.17;;
13238;SDS011;6686;51.292;4.166;2022-07-06T01:39:40;5.75;;;5.25;;
13238;SDS011;6686;51.292;4.166;2022-07-06T01:42:26;5.50;;;4.90;;
13238;SDS011;6686;51.292;4.166;2022-07-06T01:45:12;5.43;;;4.93;;
13238;SDS011;6686;51.292;4.166;2022-07-06T01:47:58;5.70;;;5.10;;
13238;SDS011;6686;51.292;4.166;2022-07-06T01:50:43;4.97;;;4.47;;
13238;SDS011;6686;51.292;4.166;2022-07-06T01:53:29;5.90;;;5.30;;
13238;SDS011;6686;51.292;4.166;2022-07-06T01:56:15;5.60;;;5.03;;
13238;SDS011;6686;51.292;4.166;2022-07-06T01:59:01;6.23;;;5.13;;
13238;SDS011;6686;51.292;4.166;2022-07-06T02:01:47;5.00;;;4.53;;
13238;SDS011;6686;51.292;4.166;2022-07-06T02:04:33;4.77;;;4.27;;
13238;SDS011;6686;51.292;4.166;2022-07-06T02:07:18;6.27;;;4.60;;
13238;SDS011;6686;51.292;4.166;2022-07-06T02:10:04;5.73;;;5.13;;
13238;SDS011;6686;51.292;4.166;2022-07-06T02:12:50;5.90;;;5.00;;
13238;SDS011;6686;51.292;4.166;2022-07-06T02:15:37;5.50;;;4.63;;
13238;SDS011;6686;51.292;4.166;2022-07-06T02:18:23;6.80;;;4.70;;
13238;SDS011;6686;51.292;4.166;2022-07-06T02:21:08;5.77;;;4.83;;
13238;SDS011;6686;51.292;4.166;2022-07-06T02:23:55;6.33;;;5.17;;
13238;SDS011;6686;51.292;4.166;2022-07-06T02:26:41;5.90;;;5.30;;
13238;SDS011;6686;51.292;4.166;2022-07-06T02:29:26;8.07;;;5.37;;
13238;SDS011;6686;51.292;4.166;2022-07-06T02:32:12;7.75;;;6.28;;
13238;SDS011;6686;51.292;4.166;2022-07-06T02:34:58;8.13;;;6.33;;
13238;SDS011;6686;51.292;4.166;2022-07-06T02:37:44;6.53;;;5.80;;
13238;SDS011;6686;51.292;4.166;2022-07-06T02:40:30;8.85;;;6.45;;
13238;SDS011;6686;51.292;4.166;2022-07-06T02:43:16;8.03;;;6.20;;
13238;SDS011;6686;51.292;4.166;2022-07-06T02:46:01;6.70;;;6.00;;
13238;SDS011;6686;51.292;4.166;2022-07-06T02:48:47;8.83;;;6.93;;
13238;SDS011;6686;51.292;4.166;2022-07-06T02:51:33;8.10;;;7.18;;
13238;SDS011;6686;51.292;4.166;2022-07-06T02:54:19;7.87;;;6.57;;
13238;SDS011;6686;51.292;4.166;2022-07-06T02:57:04;8.87;;;6.90;;
13238;SDS011;6686;51.292;4.166;2022-07-06T02:59:50;7.90;;;6.70;;
13238;SDS011;6686;51.292;4.166;2022-07-06T03:02:36;9.43;;;6.53;;
13238;SDS011;6686;51.292;4.166;2022-07-06T03:05:23;7.60;;;5.63;;
13238;SDS011;6686;51.292;4.166;2022-07-06T03:08:08;7.33;;;6.07;;
13238;SDS011;6686;51.292;4.166;2022-07-06T03:10:54;7.80;;;6.33;;
13238;SDS011;6686;51.292;4.166;2022-07-06T03:13:40;6.87;;;6.23;;
13238;SDS011;6686;51.292;4.166;2022-07-06T03:16:26;8.33;;;6.63;;
13238;SDS011;6686;51.292;4.166;2022-07-06T03:19:13;7.67;;;5.70;;
13238;SDS011;6686;51.292;4.166;2022-07-06T03:21:59;6.90;;;6.20;;
13238;SDS011;6686;51.292;4.166;2022-07-06T03:24:45;8.90;;;6.37;;
13238;SDS011;6686;51.292;4.166;2022-07-06T03:27:30;7.47;;;6.73;;
13238;SDS011;6686;51.292;4.166;2022-07-06T03:30:17;8.73;;;6.57;;
13238;SDS011;6686;51.292;4.166;2022-07-06T03:33:02;7.27;;;6.57;;
13238;SDS011;6686;51.292;4.166;2022-07-06T03:35:48;10.10;;;6.97;;
13238;SDS011;6686;51.292;4.166;2022-07-06T03:38:35;8.90;;;6.87;;
13238;SDS011;6686;51.292;4.166;2022-07-06T03:41:20;7.47;;;6.63;;
13238;SDS011;6686;51.292;4.166;2022-07-06T03:44:06;7.73;;;6.37;;
13238;SDS011;6686;51.292;4.166;2022-07-06T03:46:52;6.97;;;6.27;;
13238;SDS011;6686;51.292;4.166;2022-07-06T03:49:38;7.83;;;6.73;;
13238;SDS011;6686;51.292;4.166;2022-07-06T03:52:24;8.43;;;6.43;;
13238;SDS011;6686;51.292;4.166;2022-07-06T03:55:10;7.63;;;6.83;;
13238;SDS011;6686;51.292;4.166;2022-07-06T03:57:55;8.33;;;6.50;;
13238;SDS011;6686;51.292;4.166;2022-07-06T04:00:41;8.90;;;7.17;;
13238;SDS011;6686;51.292;4.166;2022-07-06T04:03:27;8.43;;;6.30;;
13238;SDS011;6686;51.292;4.166;2022-07-06T04:06:13;7.90;;;7.10;;
13238;SDS011;6686;51.292;4.166;2022-07-06T04:08:59;10.67;;;7.03;;
13238;SDS011;6686;51.292;4.166;2022-07-06T04:11:45;7.30;;;6.60;;
13238;SDS011;6686;51.292;4.166;2022-07-06T04:14:31;11.07;;;7.03;;
13238;SDS011;6686;51.292;4.166;2022-07-06T04:17:17;9.50;;;7.10;;
13238;SDS011;6686;51.292;4.166;2022-07-06T04:20:22;8.90;;;7.78;;
13238;SDS011;6686;51.292;4.166;2022-07-06T04:23:07;8.50;;;7.30;;
13238;SDS011;6686;51.292;4.166;2022-07-06T04:25:53;7.90;;;6.77;;
13238;SDS011;6686;51.292;4.166;2022-07-06T04:28:39;8.03;;;7.23;;
13238;SDS011;6686;51.292;4.166;2022-07-06T04:31:24;9.93;;;7.07;;
13238;SDS011;6686;51.292;4.166;2022-07-06T04:34:10;9.37;;;6.87;;
13238;SDS011;6686;51.292;4.166;2022-07-06T04:36:56;6.77;;;5.97;;
13238;SDS011;6686;51.292;4.166;2022-07-06T04:39:42;10.50;;;6.57;;
13238;SDS011;6686;51.292;4.166;2022-07-06T04:42:28;9.47;;;6.83;;
13238;SDS011;6686;51.292;4.166;2022-07-06T04:45:13;8.07;;;6.77;;
13238;SDS011;6686;51.292;4.166;2022-07-06T04:47:59;6.73;;;6.13;;
13238;SDS011;6686;51.292;4.166;2022-07-06T04:50:45;9.70;;;6.20;;
13238;SDS011;6686;51.292;4.166;2022-07-06T04:53:31;8.63;;;6.53;;
13238;SDS011;6686;51.292;4.166;2022-07-06T04:56:17;6.33;;;5.73;;
13238;SDS011;6686;51.292;4.166;2022-07-06T04:59:03;7.07;;;6.37;;
13238;SDS011;6686;51.292;4.166;2022-07-06T05:01:49;6.87;;;6.17;;
13238;SDS011;6686;51.292;4.166;2022-07-06T05:04:35;6.97;;;6.27;;
13238;SDS011;6686;51.292;4.166;2022-07-06T05:07:20;6.90;;;6.20;;
13238;SDS011;6686;51.292;4.166;2022-07-06T05:10:10;10.43;;;6.70;;
13238;SDS011;6686;51.292;4.166;2022-07-06T05:12:53;6.40;;;5.80;;
13238;SDS011;6686;51.292;4.166;2022-07-06T05:15:39;10.70;;;6.60;;
13238;SDS011;6686;51.292;4.166;2022-07-06T05:18:25;7.40;;;6.60;;
13238;SDS011;6686;51.292;4.166;2022-07-06T05:21:11;9.20;;;6.73;;
13238;SDS011;6686;51.292;4.166;2022-07-06T05:23:58;9.65;;;8.43;;
13238;SDS011;6686;51.292;4.166;2022-07-06T05:26:43;10.97;;;8.00;;
13238;SDS011;6686;51.292;4.166;2022-07-06T05:29:29;9.83;;;6.23;;
13238;SDS011;6686;51.292;4.166;2022-07-06T05:32:15;9.80;;;6.77;;
13238;SDS011;6686;51.292;4.166;2022-07-06T05:35:01;13.47;;;7.60;;
13238;SDS011;6686;51.292;4.166;2022-07-06T05:37:46;14.63;;;9.20;;
13238;SDS011;6686;51.292;4.166;2022-07-06T05:40:32;10.90;;;7.27;;
13238;SDS011;6686;51.292;4.166;2022-07-06T05:43:18;9.80;;;7.67;;
13238;SDS011;6686;51.292;4.166;2022-07-06T05:46:04;9.20;;;7.17;;
13238;SDS011;6686;51.292;4.166;2022-07-06T05:48:50;8.77;;;6.60;;
13238;SDS011;6686;51.292;4.166;2022-07-06T05:51:55;9.63;;;5.83;;
13238;SDS011;6686;51.292;4.166;2022-07-06T05:54:41;7.50;;;5.30;;
13238;SDS011;6686;51.292;4.166;2022-07-06T05:57:27;8.63;;;5.20;;
13238;SDS011;6686;51.292;4.166;2022-07-06T06:00:13;6.47;;;4.90;;
13238;SDS011;6686;51.292;4.166;2022-07-06T06:02:59;7.90;;;5.50;;
13238;SDS011;6686;51.292;4.166;2022-07-06T06:05:45;6.40;;;4.57;;
13238;SDS011;6686;51.292;4.166;2022-07-06T06:08:31;4.50;;;3.67;;
13238;SDS011;6686;51.292;4.166;2022-07-06T06:11:17;6.75;;;4.78;;
13238;SDS011;6686;51.292;4.166;2022-07-06T06:14:03;6.57;;;4.47;;
13238;SDS011;6686;51.292;4.166;2022-07-06T06:16:49;6.45;;;3.97;;
13238;SDS011;6686;51.292;4.166;2022-07-06T06:19:34;8.07;;;4.22;;
13238;SDS011;6686;51.292;4.166;2022-07-06T06:22:20;5.28;;;3.90;;
13238;SDS011;6686;51.292;4.166;2022-07-06T06:25:06;11.90;;;4.60;;
13238;SDS011;6686;51.292;4.166;2022-07-06T06:27:52;6.47;;;4.62;;
13238;SDS011;6686;51.292;4.166;2022-07-06T06:30:38;6.03;;;4.30;;
13238;SDS011;6686;51.292;4.166;2022-07-06T06:33:24;6.20;;;4.18;;
13238;SDS011;6686;51.292;4.166;2022-07-06T06:36:10;6.57;;;4.62;;
13238;SDS011;6686;51.292;4.166;2022-07-06T06:38:55;7.60;;;4.05;;
13238;SDS011;6686;51.292;4.166;2022-07-06T06:41:41;5.53;;;4.37;;
13238;SDS011;6686;51.292;4.166;2022-07-06T06:44:27;6.12;;;3.80;;
13238;SDS011;6686;51.292;4.166;2022-07-06T06:47:13;6.50;;;4.53;;
13238;SDS011;6686;51.292;4.166;2022-07-06T06:49:59;5.30;;;3.37;;
13238;SDS011;6686;51.292;4.166;2022-07-06T06:52:45;6.30;;;4.32;;
13238;SDS011;6686;51.292;4.166;2022-07-06T06:55:31;5.12;;;3.75;;
13238;SDS011;6686;51.292;4.166;2022-07-06T06:58:17;5.25;;;3.30;;
13238;SDS011;6686;51.292;4.166;2022-07-06T07:01:03;6.35;;;3.85;;
13238;SDS011;6686;51.292;4.166;2022-07-06T07:03:50;5.20;;;3.25;;
13238;SDS011;6686;51.292;4.166;2022-07-06T07:06:35;4.70;;;3.33;;
13238;SDS011;6686;51.292;4.166;2022-07-06T07:09:21;4.18;;;3.03;;
13238;SDS011;6686;51.292;4.166;2022-07-06T07:12:07;3.67;;;3.05;;
13238;SDS011;6686;51.292;4.166;2022-07-06T07:14:53;6.43;;;3.58;;
13238;SDS011;6686;51.292;4.166;2022-07-06T07:17:39;3.20;;;1.87;;
13238;SDS011;6686;51.292;4.166;2022-07-06T07:20:24;4.47;;;2.28;;
13238;SDS011;6686;51.292;4.166;2022-07-06T07:23:10;5.15;;;2.28;;
13238;SDS011;6686;51.292;4.166;2022-07-06T07:25:57;3.92;;;2.20;;
13238;SDS011;6686;51.292;4.166;2022-07-06T07:28:43;5.50;;;2.65;;
13238;SDS011;6686;51.292;4.166;2022-07-06T07:31:29;2.95;;;1.98;;
13238;SDS011;6686;51.292;4.166;2022-07-06T07:34:14;3.03;;;2.00;;
13238;SDS011;6686;51.292;4.166;2022-07-06T07:37:00;4.00;;;2.35;;
13238;SDS011;6686;51.292;4.166;2022-07-06T07:39:46;5.45;;;3.15;;
13238;SDS011;6686;51.292;4.166;2022-07-06T07:42:32;3.37;;;1.90;;
13238;SDS011;6686;51.292;4.166;2022-07-06T07:45:18;3.87;;;2.00;;
13238;SDS011;6686;51.292;4.166;2022-07-06T07:48:04;2.95;;;1.80;;
13238;SDS011;6686;51.292;4.166;2022-07-06T07:50:50;3.30;;;1.65;;
13238;SDS011;6686;51.292;4.166;2022-07-06T07:53:36;2.90;;;1.27;;
13238;SDS011;6686;51.292;4.166;2022-07-06T07:56:23;1.75;;;1.23;;
13238;SDS011;6686;51.292;4.166;2022-07-06T07:59:09;1.90;;;1.13;;
13238;SDS011;6686;51.292;4.166;2022-07-06T08:01:55;4.47;;;1.93;;
13238;SDS011;6686;51.292;4.166;2022-07-06T08:04:41;5.40;;;1.83;;
13238;SDS011;6686;51.292;4.166;2022-07-06T08:07:27;7.63;;;3.00;;
13238;SDS011;6686;51.292;4.166;2022-07-06T08:10:13;4.12;;;1.70;;
13238;SDS011;6686;51.292;4.166;2022-07-06T08:12:59;4.67;;;2.07;;
13238;SDS011;6686;51.292;4.166;2022-07-06T08:15:45;2.50;;;1.37;;
13238;SDS011;6686;51.292;4.166;2022-07-06T08:18:31;3.07;;;2.00;;
13238;SDS011;6686;51.292;4.166;2022-07-06T08:21:17;2.10;;;1.30;;
13238;SDS011;6686;51.292;4.166;2022-07-06T08:24:02;3.80;;;1.73;;
13238;SDS011;6686;51.292;4.166;2022-07-06T08:26:49;3.43;;;1.60;;
13238;SDS011;6686;51.292;4.166;2022-07-06T08:29:34;5.77;;;1.80;;
13238;SDS011;6686;51.292;4.166;2022-07-06T08:32:21;3.13;;;2.00;;
13238;SDS011;6686;51.292;4.166;2022-07-06T08:35:06;10.98;;;3.03;;
13238;SDS011;6686;51.292;4.166;2022-07-06T08:37:52;3.87;;;1.80;;
13238;SDS011;6686;51.292;4.166;2022-07-06T08:40:38;3.80;;;1.60;;
13238;SDS011;6686;51.292;4.166;2022-07-06T08:43:23;2.73;;;1.50;;
13238;SDS011;6686;51.292;4.166;2022-07-06T08:46:09;2.80;;;1.70;;
13238;SDS011;6686;51.292;4.166;2022-07-06T08:48:55;4.97;;;1.63;;
13238;SDS011;6686;51.292;4.166;2022-07-06T08:51:41;4.70;;;1.87;;
13238;SDS011;6686;51.292;4.166;2022-07-06T08:54:27;3.87;;;2.07;;
13238;SDS011;6686;51.292;4.166;2022-07-06T08:57:13;2.70;;;1.60;;
13238;SDS011;6686;51.292;4.166;2022-07-06T08:59:59;4.30;;;1.83;;
13238;SDS011;6686;51.292;4.166;2022-07-06T09:02:45;3.33;;;1.50;;
13238;SDS011;6686;51.292;4.166;2022-07-06T09:05:31;5.50;;;1.80;;
13238;SDS011;6686;51.292;4.166;2022-07-06T09:08:18;3.60;;;2.27;;
13238;SDS011;6686;51.292;4.166;2022-07-06T09:11:03;3.20;;;1.70;;
13238;SDS011;6686;51.292;4.166;2022-07-06T09:13:50;4.30;;;1.80;;
13238;SDS011;6686;51.292;4.166;2022-07-06T09:16:37;6.70;;;2.80;;
13238;SDS011;6686;51.292;4.166;2022-07-06T09:19:24;2.97;;;1.50;;
13238;SDS011;6686;51.292;4.166;2022-07-06T09:22:09;7.33;;;1.73;;
13238;SDS011;6686;51.292;4.166;2022-07-06T09:25:01;5.40;;;2.10;;
13238;SDS011;6686;51.292;4.166;2022-07-06T09:27:42;5.60;;;1.77;;
13238;SDS011;6686;51.292;4.166;2022-07-06T09:30:28;3.17;;;1.73;;
13238;SDS011;6686;51.292;4.166;2022-07-06T09:33:16;2.53;;;1.33;;
13238;SDS011;6686;51.292;4.166;2022-07-06T09:36:04;1.83;;;1.30;;
13238;SDS011;6686;51.292;4.166;2022-07-06T09:38:50;3.90;;;1.83;;
13238;SDS011;6686;51.292;4.166;2022-07-06T09:41:35;3.93;;;2.30;;
13238;SDS011;6686;51.292;4.166;2022-07-06T09:44:21;5.23;;;2.10;;
13238;SDS011;6686;51.292;4.166;2022-07-06T09:47:11;5.50;;;1.70;;
13238;SDS011;6686;51.292;4.166;2022-07-06T09:49:55;6.23;;;1.70;;
13238;SDS011;6686;51.292;4.166;2022-07-06T09:52:52;3.67;;;1.93;;
13238;SDS011;6686;51.292;4.166;2022-07-06T09:55:35;3.37;;;1.90;;
13238;SDS011;6686;51.292;4.166;2022-07-06T09:58:18;4.60;;;1.90;;
13238;SDS011;6686;51.292;4.166;2022-07-06T10:01:03;3.57;;;2.50;;
13238;SDS011;6686;51.292;4.166;2022-07-06T10:03:49;4.17;;;1.83;;
13238;SDS011;6686;51.292;4.166;2022-07-06T10:06:35;4.57;;;2.10;;
13238;SDS011;6686;51.292;4.166;2022-07-06T10:09:22;2.60;;;1.40;;
13238;SDS011;6686;51.292;4.166;2022-07-06T10:12:07;4.23;;;1.40;;
13238;SDS011;6686;51.292;4.166;2022-07-06T10:14:53;2.13;;;1.57;;
13238;SDS011;6686;51.292;4.166;2022-07-06T10:17:39;4.33;;;1.63;;
13238;SDS011;6686;51.292;4.166;2022-07-06T10:20:25;3.20;;;1.63;;
13238;SDS011;6686;51.292;4.166;2022-07-06T10:23:10;4.97;;;2.07;;
13238;SDS011;6686;51.292;4.166;2022-07-06T10:25:57;3.17;;;1.70;;
13238;SDS011;6686;51.292;4.166;2022-07-06T10:28:42;3.27;;;1.80;;
13238;SDS011;6686;51.292;4.166;2022-07-06T10:31:28;3.42;;;1.83;;
13238;SDS011;6686;51.292;4.166;2022-07-06T10:34:15;6.13;;;2.20;;
13238;SDS011;6686;51.292;4.166;2022-07-06T10:37:00;3.70;;;1.70;;
13238;SDS011;6686;51.292;4.166;2022-07-06T10:39:46;1.93;;;1.63;;
13238;SDS011;6686;51.292;4.166;2022-07-06T10:42:57;4.13;;;1.67;;
13238;SDS011;6686;51.292;4.166;2022-07-06T10:48:34;4.20;;;1.53;;
13238;SDS011;6686;51.292;4.166;2022-07-06T10:51:23;3.97;;;1.93;;
13238;SDS011;6686;51.292;4.166;2022-07-06T10:54:11;5.00;;;2.00;;
13238;SDS011;6686;51.292;4.166;2022-07-06T10:56:57;3.00;;;1.80;;
13238;SDS011;6686;51.292;4.166;2022-07-06T11:00:00;1.67;;;1.40;;
13238;SDS011;6686;51.292;4.166;2022-07-06T11:02:37;2.90;;;2.10;;
13238;SDS011;6686;51.292;4.166;2022-07-06T11:06:18;5.57;;;2.93;;
13238;SDS011;6686;51.292;4.166;2022-07-06T11:08:46;3.90;;;2.30;;
13238;SDS011;6686;51.292;4.166;2022-07-06T11:14:21;5.63;;;2.30;;
13238;SDS011;6686;51.292;4.166;2022-07-06T11:17:09;3.57;;;2.10;;
13238;SDS011;6686;51.292;4.166;2022-07-06T11:20:15;5.62;;;2.80;;
13238;SDS011;6686;51.292;4.166;2022-07-06T11:22:41;4.97;;;2.30;;
13238;SDS011;6686;51.292;4.166;2022-07-06T11:25:27;4.73;;;2.57;;
13238;SDS011;6686;51.292;4.166;2022-07-06T11:28:13;3.83;;;2.57;;
13238;SDS011;6686;51.292;4.166;2022-07-06T11:30:59;3.70;;;2.40;;
13238;SDS011;6686;51.292;4.166;2022-07-06T11:33:45;4.57;;;2.90;;
13238;SDS011;6686;51.292;4.166;2022-07-06T11:36:30;3.37;;;2.60;;
13238;SDS011;6686;51.292;4.166;2022-07-06T11:39:16;4.33;;;2.97;;
13238;SDS011;6686;51.292;4.166;2022-07-06T11:42:02;5.27;;;3.00;;
13238;SDS011;6686;51.292;4.166;2022-07-06T11:44:51;5.07;;;2.70;;
13238;SDS011;6686;51.292;4.166;2022-07-06T11:47:36;3.50;;;2.80;;
13238;SDS011;6686;51.292;4.166;2022-07-06T11:50:22;5.60;;;3.43;;
13238;SDS011;6686;51.292;4.166;2022-07-06T11:53:08;5.37;;;3.13;;
13238;SDS011;6686;51.292;4.166;2022-07-06T11:55:54;4.33;;;3.00;;
13238;SDS011;6686;51.292;4.166;2022-07-06T11:58:40;7.77;;;3.57;;
13238;SDS011;6686;51.292;4.166;2022-07-06T12:01:26;5.00;;;3.40;;
13238;SDS011;6686;51.292;4.166;2022-07-06T12:04:11;8.73;;;4.00;;
13238;SDS011;6686;51.292;4.166;2022-07-06T12:07:05;7.35;;;3.97;;
13238;SDS011;6686;51.292;4.166;2022-07-06T12:09:47;11.93;;;4.22;;
13238;SDS011;6686;51.292;4.166;2022-07-06T12:12:32;5.67;;;3.30;;
13238;SDS011;6686;51.292;4.166;2022-07-06T12:15:26;3.93;;;2.67;;
13238;SDS011;6686;51.292;4.166;2022-07-06T12:18:03;5.40;;;2.90;;
13238;SDS011;6686;51.292;4.166;2022-07-06T12:20:49;5.27;;;3.00;;
13238;SDS011;6686;51.292;4.166;2022-07-06T12:23:43;6.17;;;2.53;;
13238;SDS011;6686;51.292;4.166;2022-07-06T12:26:26;7.55;;;2.97;;
13238;SDS011;6686;51.292;4.166;2022-07-06T12:29:13;4.75;;;2.60;;
13238;SDS011;6686;51.292;4.166;2022-07-06T12:31:59;6.72;;;3.05;;
13238;SDS011;6686;51.292;4.166;2022-07-06T12:34:45;14.43;;;3.37;;
13238;SDS011;6686;51.292;4.166;2022-07-06T12:37:31;4.80;;;2.45;;
13238;SDS011;6686;51.292;4.166;2022-07-06T12:40:21;4.83;;;3.10;;
13238;SDS011;6686;51.292;4.166;2022-07-06T12:43:06;6.40;;;2.90;;
13238;SDS011;6686;51.292;4.166;2022-07-06T12:45:52;6.47;;;2.57;;
13238;SDS011;6686;51.292;4.166;2022-07-06T12:48:51;4.90;;;2.90;;
13238;SDS011;6686;51.292;4.166;2022-07-06T12:51:52;4.57;;;2.60;;
13238;SDS011;6686;51.292;4.166;2022-07-06T12:54:44;4.95;;;3.03;;
13238;SDS011;6686;51.292;4.166;2022-07-06T12:57:41;4.53;;;2.78;;
13238;SDS011;6686;51.292;4.166;2022-07-06T13:00:15;6.67;;;2.50;;
13238;SDS011;6686;51.292;4.166;2022-07-06T13:03:01;4.23;;;3.37;;
13238;SDS011;6686;51.292;4.166;2022-07-06T13:05:50;10.83;;;4.37;;
13238;SDS011;6686;51.292;4.166;2022-07-06T13:08:36;5.30;;;2.80;;
13238;SDS011;6686;51.292;4.166;2022-07-06T13:11:23;7.55;;;2.87;;
13238;SDS011;6686;51.292;4.166;2022-07-06T13:14:09;4.97;;;3.00;;
13238;SDS011;6686;51.292;4.166;2022-07-06T13:16:55;3.37;;;2.80;;
13238;SDS011;6686;51.292;4.166;2022-07-06T13:19:42;5.10;;;3.15;;
13238;SDS011;6686;51.292;4.166;2022-07-06T13:22:28;3.50;;;2.60;;
13238;SDS011;6686;51.292;4.166;2022-07-06T13:25:13;6.90;;;3.35;;
13238;SDS011;6686;51.292;4.166;2022-07-06T13:28:00;4.95;;;2.87;;
13238;SDS011;6686;51.292;4.166;2022-07-06T13:30:46;5.05;;;3.00;;
13238;SDS011;6686;51.292;4.166;2022-07-06T13:33:32;4.85;;;2.87;;
13238;SDS011;6686;51.292;4.166;2022-07-06T13:36:18;5.70;;;2.83;;
13238;SDS011;6686;51.292;4.166;2022-07-06T13:39:05;6.18;;;3.60;;
13238;SDS011;6686;51.292;4.166;2022-07-06T13:41:51;6.70;;;3.30;;
13238;SDS011;6686;51.292;4.166;2022-07-06T13:44:37;5.53;;;2.78;;
13238;SDS011;6686;51.292;4.166;2022-07-06T13:47:23;50.95;;;6.30;;
13238;SDS011;6686;51.292;4.166;2022-07-06T13:50:09;7.83;;;3.00;;
13238;SDS011;6686;51.292;4.166;2022-07-06T13:52:55;4.43;;;2.67;;
13238;SDS011;6686;51.292;4.166;2022-07-06T13:55:41;5.68;;;2.42;;
13238;SDS011;6686;51.292;4.166;2022-07-06T13:58:27;3.30;;;3.00;;
13238;SDS011;6686;51.292;4.166;2022-07-06T14:01:13;7.20;;;2.83;;
13238;SDS011;6686;51.292;4.166;2022-07-06T14:03:58;4.05;;;2.83;;
13238;SDS011;6686;51.292;4.166;2022-07-06T14:06:44;5.30;;;2.60;;
13238;SDS011;6686;51.292;4.166;2022-07-06T14:09:30;6.20;;;3.10;;
13238;SDS011;6686;51.292;4.166;2022-07-06T14:12:16;4.82;;;3.30;;
13238;SDS011;6686;51.292;4.166;2022-07-06T14:15:01;6.12;;;4.10;;
13238;SDS011;6686;51.292;4.166;2022-07-06T14:17:47;4.78;;;3.03;;
13238;SDS011;6686;51.292;4.166;2022-07-06T14:20:33;3.50;;;2.67;;
13238;SDS011;6686;51.292;4.166;2022-07-06T14:23:19;4.05;;;3.00;;
13238;SDS011;6686;51.292;4.166;2022-07-06T14:26:04;5.05;;;3.28;;
13238;SDS011;6686;51.292;4.166;2022-07-06T14:28:50;4.50;;;3.62;;
13238;SDS011;6686;51.292;4.166;2022-07-06T14:31:36;5.68;;;3.10;;
13238;SDS011;6686;51.292;4.166;2022-07-06T14:34:22;7.72;;;3.60;;
13238;SDS011;6686;51.292;4.166;2022-07-06T14:37:08;5.57;;;2.70;;
13238;SDS011;6686;51.292;4.166;2022-07-06T14:39:54;5.20;;;3.00;;
13238;SDS011;6686;51.292;4.166;2022-07-06T14:42:39;6.87;;;3.35;;
13238;SDS011;6686;51.292;4.166;2022-07-06T14:45:25;9.00;;;3.67;;
13238;SDS011;6686;51.292;4.166;2022-07-06T14:48:11;5.77;;;3.53;;
13238;SDS011;6686;51.292;4.166;2022-07-06T14:50:57;10.33;;;4.00;;
13238;SDS011;6686;51.292;4.166;2022-07-06T14:53:43;4.27;;;3.80;;
13238;SDS011;6686;51.292;4.166;2022-07-06T14:56:29;7.13;;;4.50;;
13238;SDS011;6686;51.292;4.166;2022-07-06T14:59:15;11.27;;;4.40;;
13238;SDS011;6686;51.292;4.166;2022-07-06T15:02:01;8.73;;;4.20;;
13238;SDS011;6686;51.292;4.166;2022-07-06T15:04:47;5.33;;;3.23;;
13238;SDS011;6686;51.292;4.166;2022-07-06T15:07:33;4.67;;;3.03;;
13238;SDS011;6686;51.292;4.166;2022-07-06T15:10:19;4.07;;;2.63;;
13238;SDS011;6686;51.292;4.166;2022-07-06T15:13:05;4.67;;;2.53;;
13238;SDS011;6686;51.292;4.166;2022-07-06T15:15:51;4.60;;;2.50;;
13238;SDS011;6686;51.292;4.166;2022-07-06T15:18:37;4.97;;;2.73;;
13238;SDS011;6686;51.292;4.166;2022-07-06T15:21:23;6.03;;;2.70;;
13238;SDS011;6686;51.292;4.166;2022-07-06T15:24:09;3.47;;;2.13;;
13238;SDS011;6686;51.292;4.166;2022-07-06T15:26:55;3.80;;;2.40;;
13238;SDS011;6686;51.292;4.166;2022-07-06T15:29:40;4.20;;;2.33;;
13238;SDS011;6686;51.292;4.166;2022-07-06T15:32:26;4.50;;;2.33;;
13238;SDS011;6686;51.292;4.166;2022-07-06T15:35:12;5.37;;;2.23;;
13238;SDS011;6686;51.292;4.166;2022-07-06T15:38:01;4.40;;;1.73;;
13238;SDS011;6686;51.292;4.166;2022-07-06T15:40:50;2.20;;;1.70;;
13238;SDS011;6686;51.292;4.166;2022-07-06T15:43:36;3.73;;;1.43;;
13238;SDS011;6686;51.292;4.166;2022-07-06T15:46:26;2.90;;;1.50;;
13238;SDS011;6686;51.292;4.166;2022-07-06T15:49:11;4.15;;;1.90;;
13238;SDS011;6686;51.292;4.166;2022-07-06T15:51:57;2.37;;;1.50;;
13238;SDS011;6686;51.292;4.166;2022-07-06T15:54:43;2.20;;;1.52;;
13238;SDS011;6686;51.292;4.166;2022-07-06T15:57:28;4.03;;;2.07;;
13238;SDS011;6686;51.292;4.166;2022-07-06T16:00:14;3.50;;;1.50;;
13238;SDS011;6686;51.292;4.166;2022-07-06T16:03:00;3.53;;;1.47;;
13238;SDS011;6686;51.292;4.166;2022-07-06T16:05:46;1.30;;;1.20;;
13238;SDS011;6686;51.292;4.166;2022-07-06T16:08:32;1.67;;;1.30;;
13238;SDS011;6686;51.292;4.166;2022-07-06T16:11:17;2.83;;;1.30;;
13238;SDS011;6686;51.292;4.166;2022-07-06T16:14:04;3.07;;;1.50;;
13238;SDS011;6686;51.292;4.166;2022-07-06T16:16:50;3.27;;;1.80;;
13238;SDS011;6686;51.292;4.166;2022-07-06T16:19:36;3.00;;;1.50;;
13238;SDS011;6686;51.292;4.166;2022-07-06T16:22:21;3.90;;;1.50;;
13238;SDS011;6686;51.292;4.166;2022-07-06T16:25:07;2.97;;;1.50;;
13238;SDS011;6686;51.292;4.166;2022-07-06T16:27:54;3.77;;;1.90;;
13238;SDS011;6686;51.292;4.166;2022-07-06T16:30:39;4.50;;;1.60;;
13238;SDS011;6686;51.292;4.166;2022-07-06T16:33:25;3.53;;;1.60;;
13238;SDS011;6686;51.292;4.166;2022-07-06T16:36:11;1.50;;;1.40;;
13238;SDS011;6686;51.292;4.166;2022-07-06T16:38:57;3.75;;;1.40;;
13238;SDS011;6686;51.292;4.166;2022-07-06T16:41:43;2.87;;;0.90;;
13238;SDS011;6686;51.292;4.166;2022-07-06T16:44:29;1.85;;;1.17;;
13238;SDS011;6686;51.292;4.166;2022-07-06T16:47:15;3.27;;;1.20;;
13238;SDS011;6686;51.292;4.166;2022-07-06T16:50:01;2.20;;;0.90;;
13238;SDS011;6686;51.292;4.166;2022-07-06T16:52:46;0.83;;;0.83;;
13238;SDS011;6686;51.292;4.166;2022-07-06T16:55:32;2.10;;;0.80;;
13238;SDS011;6686;51.292;4.166;2022-07-06T16:58:18;4.83;;;1.03;;
13238;SDS011;6686;51.292;4.166;2022-07-06T17:01:07;0.93;;;0.75;;
13238;SDS011;6686;51.292;4.166;2022-07-06T17:03:54;2.33;;;1.07;;
13238;SDS011;6686;51.292;4.166;2022-07-06T17:06:40;1.87;;;1.20;;
13238;SDS011;6686;51.292;4.166;2022-07-06T17:09:25;1.90;;;1.00;;